Time;durP1;ratioP1;P1;durP2;ratioP2;P2;SDS_P1;SDS_P2;PMS_P1;PMS_P2;Temp;Humidity;BMP_temperature;BMP_pressure;BME280_temperature;BME280_humidity;BME280_pressure;Samples;Min_cycle;Max_cycle;Signal;HPM_P1;HPM_P2
2021/04/20 00:01:45;;;;;;;20.52;14.70;;;;;;;5.66;84.57;95771.25;5030003;28;20060;-48
2021/04/20 00:04:11;;;;;;;20.98;14.95;;;;;;;5.75;84.36;95765.91;5031238;28;20124;-48
2021/04/20 00:06:38;;;;;;;20.23;14.30;;;;;;;5.77;84.08;95772.56;5031298;28;20053;-49
2021/04/20 00:09:08;;;;;;;24.10;15.95;;;;;;;5.84;83.79;95772.94;5030906;28;20053;-49
2021/04/20 00:11:36;;;;;;;21.10;15.88;;;;;;;5.86;83.54;95768.06;5041295;28;20056;-49
2021/04/20 00:14:08;;;;;;;22.55;15.52;;;;;;;5.97;82.98;95760.56;5040087;28;20053;-48
2021/04/20 00:16:34;;;;;;;24.95;16.15;;;;;;;6.00;82.95;95759.16;5050641;28;20057;-48
2021/04/20 00:19:03;;;;;;;22.52;16.42;;;;;;;5.88;83.86;95766.94;5050465;28;20052;-47
2021/04/20 00:21:30;;;;;;;21.20;16.20;;;;;;;5.90;83.66;95762.88;5049224;28;20054;-49
2021/04/20 00:23:56;;;;;;;21.35;15.73;;;;;;;5.95;83.13;95760.09;5050438;28;20445;-52
2021/04/20 00:26:23;;;;;;;25.25;16.67;;;;;;;5.99;82.95;95753.00;5050596;28;20049;-47
2021/04/20 00:28:49;;;;;;;27.45;16.13;;;;;;;5.78;84.39;95758.03;5045922;28;20060;-45
2021/04/20 00:31:16;;;;;;;22.80;16.35;;;;;;;5.91;83.72;95752.91;5030596;28;20126;-46
2021/04/20 00:33:43;;;;;;;21.92;15.98;;;;;;;5.92;83.59;95760.69;5030182;28;20079;-46
2021/04/20 00:36:10;;;;;;;23.30;16.25;;;;;;;5.92;83.63;95744.56;5030694;28;20060;-50
2021/04/20 00:38:37;;;;;;;25.08;17.08;;;;;;;5.92;83.67;95741.09;5030292;28;20072;-46
2021/04/20 00:41:06;;;;;;;23.98;17.50;;;;;;;5.89;83.83;95747.06;5030415;28;20053;-46
2021/04/20 00:43:44;;;;;;;25.17;17.00;;;;;;;5.68;84.46;95744.06;5029905;28;20073;-45
2021/04/20 00:46:19;;;;;;;23.75;17.25;;;;;;;5.75;84.60;95739.88;5032019;28;20077;-45
2021/04/20 00:48:47;;;;;;;24.75;18.17;;;;;;;5.78;84.21;95752.66;5034400;28;20053;-49
2021/04/20 00:51:14;;;;;;;23.38;17.95;;;;;;;5.63;85.26;95745.78;5033954;28;20053;-48
2021/04/20 00:53:41;;;;;;;26.25;18.08;;;;;;;5.66;85.02;95748.97;5053383;28;20417;-45
2021/04/20 00:56:09;;;;;;;26.25;18.30;;;;;;;5.56;85.85;95750.00;5053832;28;20053;-46
2021/04/20 00:58:35;;;;;;;25.83;18.02;;;;;;;5.35;86.50;95753.13;5054046;28;20131;-45
2021/04/20 01:01:04;;;;;;;27.70;18.42;;;;;;;5.47;86.43;95755.28;5039864;28;20061;-45
2021/04/20 01:03:30;;;;;;;24.77;17.80;;;;;;;5.70;85.46;95745.38;5036397;23;20045;-48
2021/04/20 01:05:57;;;;;;;26.95;18.75;;;;;;;5.56;85.92;95752.69;5003553;28;20396;-49
2021/04/20 01:08:25;;;;;;;25.38;19.02;;;;;;;5.62;85.65;95751.44;4994501;28;20050;-48
2021/04/20 01:10:54;;;;;;;25.67;17.58;;;;;;;5.68;85.26;95744.88;4994755;28;20046;-50
2021/04/20 01:13:23;;;;;;;28.52;19.58;;;;;;;5.60;85.69;95740.25;4993463;28;20120;-49
2021/04/20 01:15:51;;;;;;;28.10;19.58;;;;;;;5.52;86.48;95741.75;4994210;28;20109;-48
2021/04/20 01:18:22;;;;;;;29.52;19.67;;;;;;;5.51;86.40;95744.75;4994234;28;20046;-49
2021/04/20 01:20:53;;;;;;;29.15;19.67;;;;;;;5.43;87.11;95748.13;4994258;28;20057;-47
2021/04/20 01:23:47;;;;;;;29.17;19.77;;;;;;;5.30;87.38;95747.91;5012314;28;20062;-50
2021/04/20 01:26:13;;;;;;;27.48;19.67;;;;;;;5.38;87.49;95741.81;5013817;28;20565;-51
2021/04/20 01:28:41;;;;;;;28.83;20.35;;;;;;;5.37;87.63;95744.81;5013740;28;20089;-51
2021/04/20 01:31:11;;;;;;;28.55;20.02;;;;;;;5.55;86.70;95741.13;5006756;28;20097;-48
2021/04/20 01:33:37;;;;;;;31.13;21.48;;;;;;;5.52;86.81;95739.06;4993787;28;20104;-48
2021/04/20 01:36:04;;;;;;;28.42;20.73;;;;;;;5.37;87.33;95744.81;4994173;28;20419;-48
2021/04/20 01:38:31;;;;;;;28.50;19.98;;;;;;;5.38;87.37;95741.81;4994006;28;20423;-50
2021/04/20 01:40:59;;;;;;;28.05;20.75;;;;;;;5.36;87.49;95744.00;4993915;28;20054;-48
2021/04/20 01:43:26;;;;;;;31.63;21.00;;;;;;;5.23;88.07;95739.47;4993081;28;20150;-49
2021/04/20 01:45:53;;;;;;;30.42;20.55;;;;;;;5.32;88.04;95742.22;4993631;28;20064;-50
2021/04/20 01:48:20;;;;;;;30.92;21.80;;;;;;;5.39;87.27;95743.41;4994145;28;20408;-47
2021/04/20 01:50:46;;;;;;;32.58;23.05;;;;;;;5.28;87.86;95738.56;4993656;28;20467;-49
2021/04/20 01:53:13;;;;;;;31.05;22.35;;;;;;;5.34;87.75;95740.81;4992984;28;20464;-51
2021/04/20 01:55:39;;;;;;;31.55;21.55;;;;;;;5.56;86.48;95739.28;4994064;28;20125;-48
2021/04/20 01:58:07;;;;;;;34.03;23.42;;;;;;;5.31;87.79;95743.31;4997811;28;20629;-47
2021/04/20 02:00:36;;;;;;;33.83;23.17;;;;;;;5.45;87.78;95745.97;5009465;28;20050;-49
2021/04/20 02:03:05;;;;;;;32.30;22.55;;;;;;;5.44;87.09;95747.06;4975413;28;20109;-48
2021/04/20 02:05:32;;;;;;;31.80;22.00;;;;;;;5.50;87.15;95743.16;4993636;28;20639;-46
2021/04/20 02:07:59;;;;;;;31.80;22.88;;;;;;;5.67;86.30;95743.28;4993428;28;20065;-49
2021/04/20 02:10:26;;;;;;;32.97;22.42;;;;;;;5.45;87.23;95735.22;4992162;28;20416;-48
2021/04/20 02:12:52;;;;;;;32.38;23.63;;;;;;;5.57;86.63;95741.63;4992512;28;20073;-48
2021/04/20 02:15:19;;;;;;;36.05;24.33;;;;;;;5.54;86.77;95744.13;4993412;28;20511;-47
2021/04/20 02:17:47;;;;;;;34.33;23.58;;;;;;;5.63;85.87;95743.09;4993341;28;20051;-46
2021/04/20 02:20:14;;;;;;;33.25;23.08;;;;;;;5.68;85.44;95739.50;4990457;28;20408;-46
2021/04/20 02:22:48;;;;;;;34.83;25.10;;;;;;;5.65;85.96;95742.00;4992829;28;20138;-49
2021/04/20 02:25:18;;;;;;;33.25;23.83;;;;;;;5.46;86.73;95742.16;4993525;28;20182;-46
2021/04/20 02:27:48;;;;;;;36.45;24.00;;;;;;;5.43;86.76;95742.78;4993444;28;20453;-45
2021/04/20 02:30:16;;;;;;;33.45;23.85;;;;;;;5.37;87.18;95737.53;4993336;28;20157;-46
2021/04/20 02:32:43;;;;;;;32.70;24.20;;;;;;;5.42;86.87;95741.19;4991340;28;20574;-46
2021/04/20 02:35:13;;;;;;;34.47;24.55;;;;;;;5.43;86.92;95740.91;4991957;28;20062;-46
2021/04/20 02:37:42;;;;;;;36.90;26.10;;;;;;;5.37;87.37;95739.44;4993170;28;20069;-49
2021/04/20 02:40:23;;;;;;;31.73;24.00;;;;;;;5.45;87.45;95738.69;4975850;28;20046;-47
2021/04/20 02:42:52;;;;;;;35.05;24.52;;;;;;;5.49;86.69;95736.19;4992569;28;20050;-48
2021/04/20 02:45:22;;;;;;;35.45;24.85;;;;;;;5.56;86.51;95737.38;4993474;28;20052;-46
2021/04/20 02:47:51;;;;;;;37.30;24.17;;;;;;;5.58;86.46;95734.38;4993344;28;20046;-46
2021/04/20 02:50:24;;;;;;;32.95;23.88;;;;;;;5.71;85.26;95738.88;4993148;28;20042;-46
2021/04/20 02:52:54;;;;;;;37.90;25.55;;;;;;;5.61;86.41;95736.44;5005806;28;20050;-47
2021/04/20 02:55:24;;;;;;;36.47;25.65;;;;;;;5.60;86.76;95726.81;4991907;28;20065;-47
2021/04/20 02:57:54;;;;;;;36.00;25.92;;;;;;;5.61;86.21;95729.19;4995505;28;20132;-48
2021/04/20 03:00:25;;;;;;;37.08;25.38;;;;;;;5.66;86.97;95732.88;5011007;28;20384;-47
2021/04/20 03:02:57;;;;;;;36.92;26.38;;;;;;;5.71;85.90;95722.00;4992155;28;20534;-48
2021/04/20 03:05:26;;;;;;;37.47;26.60;;;;;;;5.75;85.62;95729.16;4991259;28;20050;-48
2021/04/20 03:07:52;;;;;;;37.90;26.85;;;;;;;5.70;86.21;95726.56;4991237;28;20131;-46
2021/04/20 03:10:20;;;;;;;38.58;27.05;;;;;;;5.67;86.19;95724.50;4992131;28;20077;-48
2021/04/20 03:12:47;;;;;;;38.15;25.80;;;;;;;5.63;86.14;95731.59;4992703;28;20423;-47
2021/04/20 03:15:15;;;;;;;40.50;27.38;;;;;;;5.42;87.43;95725.88;5011025;28;20411;-49
2021/04/20 03:17:45;;;;;;;42.67;28.73;;;;;;;5.35;87.81;95718.25;5011088;28;20054;-46
2021/04/20 03:20:14;;;;;;;38.58;27.85;;;;;;;5.37;88.00;95724.13;5013128;28;20058;-51
2021/04/20 03:22:43;;;;;;;36.33;26.13;;;;;;;5.50;87.46;95719.03;4999567;28;20530;-46
2021/04/20 03:25:09;;;;;;;41.13;28.52;;;;;;;5.24;88.58;95713.44;4993213;28;20050;-46
2021/04/20 03:27:38;;;;;;;38.67;27.00;;;;;;;5.35;88.08;95720.94;4992607;28;20053;-47
2021/04/20 03:30:06;;;;;;;37.78;26.55;;;;;;;5.45;88.43;95719.13;4992228;28;20050;-46
2021/04/20 03:32:32;;;;;;;38.28;26.63;;;;;;;5.64;86.87;95714.38;4992298;28;20054;-48
2021/04/20 03:35:14;;;;;;;38.88;27.30;;;;;;;5.63;86.91;95705.53;4990933;28;20054;-46
2021/04/20 03:38:08;;;;;;;38.58;26.85;;;;;;;5.59;87.16;95703.78;4992546;28;20077;-47
2021/04/20 03:40:36;;;;;;;42.75;28.33;;;;;;;5.66;86.94;95698.75;4992283;28;20062;-49
2021/04/20 03:43:11;;;;;;;43.72;29.20;;;;;;;5.64;86.89;95703.63;4992226;28;20116;-47
2021/04/20 03:45:46;;;;;;;41.53;29.30;;;;;;;5.39;88.20;95705.03;4991315;28;20046;-46
2021/04/20 03:48:20;;;;;;;40.30;27.63;;;;;;;5.54;86.71;95717.31;4993416;28;20057;-47
2021/04/20 03:50:56;;;;;;;42.70;28.92;;;;;;;5.55;86.92;95719.66;4991190;28;20053;-46
2021/04/20 03:53:24;;;;;;;46.63;29.70;;;;;;;5.33;88.20;95723.16;4992355;28;20069;-50
2021/04/20 03:55:53;;;;;;;41.13;28.73;;;;;;;5.39;88.42;95721.13;4992531;28;20051;-49
2021/04/20 03:58:22;;;;;;;38.90;27.80;;;;;;;5.55;87.28;95721.56;4981122;28;20069;-48
2021/04/20 04:00:58;;;;;;;37.60;26.65;;;;;;;5.55;86.92;95726.94;4997755;28;20055;-47
2021/04/20 04:03:27;;;;;;;39.80;27.75;;;;;;;5.57;87.07;95716.69;4991711;28;20520;-47
2021/04/20 04:05:56;;;;;;;42.75;29.30;;;;;;;5.47;87.76;95716.94;4991482;28;20062;-47
2021/04/20 04:08:24;;;;;;;42.92;28.52;;;;;;;5.51;87.38;95718.69;4992397;28;20046;-46
2021/04/20 04:10:54;;;;;;;44.63;29.83;;;;;;;5.32;88.26;95720.75;4991047;28;20042;-47
2021/04/20 04:13:24;;;;;;;39.95;28.15;;;;;;;5.52;86.95;95719.50;4990898;28;20516;-48
2021/04/20 04:15:55;;;;;;;38.78;27.92;;;;;;;5.58;86.93;95718.28;4993044;28;20053;-49
2021/04/20 04:18:23;;;;;;;42.72;28.70;;;;;;;5.53;87.00;95711.16;4996231;28;20065;-47
2021/04/20 04:20:49;;;;;;;40.47;27.90;;;;;;;5.62;86.38;95708.50;4995987;28;20050;-52
2021/04/20 04:23:24;;;;;;;40.92;28.17;;;;;;;5.66;86.19;95709.50;4999468;28;20062;-46
2021/04/20 04:26:00;;;;;;;41.50;29.08;;;;;;;5.48;87.26;95713.16;4999744;28;20069;-48
2021/04/20 04:28:28;;;;;;;42.20;27.77;;;;;;;5.55;87.45;95713.50;5000132;28;20151;-48
2021/04/20 04:30:56;;;;;;;42.25;27.95;;;;;;;5.40;87.39;95712.00;5000368;28;20053;-46
2021/04/20 04:33:24;;;;;;;41.58;28.40;;;;;;;5.37;88.27;95724.13;4999922;28;20050;-47
2021/04/20 04:35:52;;;;;;;41.80;28.73;;;;;;;5.49;87.02;95715.53;5000092;28;20050;-49
2021/04/20 04:38:19;;;;;;;40.45;27.95;;;;;;;5.59;86.74;95714.50;5017163;28;20062;-50
2021/04/20 04:40:47;;;;;;;39.97;27.38;;;;;;;5.57;86.49;95717.47;5015153;28;20054;-47
2021/04/20 04:43:15;;;;;;;44.97;28.80;;;;;;;5.44;87.12;95721.03;5001900;28;20424;-48
2021/04/20 04:45:42;;;;;;;45.20;28.90;;;;;;;5.38;87.53;95736.44;5000272;28;20416;-49
2021/04/20 04:48:09;;;;;;;40.75;28.25;;;;;;;5.44;87.65;95728.28;5004060;28;20050;-48
2021/04/20 04:50:41;;;;;;;41.55;27.35;;;;;;;5.53;86.77;95724.56;5031981;28;20132;-48
2021/04/20 04:53:11;;;;;;;41.90;27.50;;;;;;;5.49;87.33;95728.97;5013939;28;20060;-49
2021/04/20 04:55:37;;;;;;;44.33;29.13;;;;;;;5.62;86.09;95724.59;5017936;28;20054;-47
2021/04/20 04:58:06;;;;;;;37.72;26.90;;;;;;;5.50;86.49;95735.13;5016135;28;20050;-51
2021/04/20 05:00:34;;;;;;;42.58;27.00;;;;;;;5.54;86.13;95726.13;5006317;28;20050;-47
2021/04/20 05:03:04;;;;;;;43.28;27.65;;;;;;;5.48;86.66;95729.25;5009511;28;20551;-49
2021/04/20 05:05:32;;;;;;;43.47;28.48;;;;;;;5.27;87.49;95729.72;5012812;28;20070;-48
2021/04/20 05:07:59;;;;;;;44.50;28.52;;;;;;;5.47;87.07;95728.47;5010279;28;20411;-48
2021/04/20 05:10:26;;;;;;;41.15;27.90;;;;;;;5.34;87.86;95740.81;5012213;28;20045;-47
2021/04/20 05:12:53;;;;;;;38.70;26.60;;;;;;;5.49;86.97;95734.34;5007431;28;20058;-48
2021/04/20 05:15:23;;;;;;;40.25;27.65;;;;;;;5.39;87.39;95743.41;5011726;28;20060;-46
2021/04/20 05:17:50;;;;;;;40.92;27.40;;;;;;;5.34;87.54;95745.41;5012250;28;20638;-47
2021/04/20 05:20:19;;;;;;;41.28;27.50;;;;;;;5.37;87.78;95742.91;5012832;28;20478;-46
2021/04/20 05:22:47;;;;;;;38.30;27.52;;;;;;;5.57;87.36;95740.84;5011901;28;20133;-48
2021/04/20 05:25:17;;;;;;;40.25;27.60;;;;;;;5.77;85.63;95731.50;4994979;28;20065;-46
2021/04/20 05:27:51;;;;;;;42.33;27.90;;;;;;;5.82;85.24;95731.41;5009472;28;20062;-46
2021/04/20 05:30:19;;;;;;;40.88;26.73;;;;;;;5.82;85.09;95732.19;5013674;28;20062;-46
2021/04/20 05:32:50;;;;;;;44.47;27.20;;;;;;;5.89;85.49;95733.66;5010356;28;20069;-46
2021/04/20 05:35:16;;;;;;;39.17;26.23;;;;;;;5.98;85.33;95735.31;5013193;28;20057;-52
2021/04/20 05:37:46;;;;;;;40.30;26.88;;;;;;;5.89;85.71;95728.28;5013368;28;20053;-48
2021/04/20 05:40:21;;;;;;;41.92;27.55;;;;;;;6.04;85.17;95730.59;5013884;28;20060;-49
2021/04/20 05:42:50;;;;;;;38.53;26.73;;;;;;;6.12;84.31;95724.47;4995414;28;20050;-51
2021/04/20 05:45:17;;;;;;;37.97;26.40;;;;;;;6.24;83.30;95718.53;5011717;28;20177;-49
2021/04/20 05:47:46;;;;;;;37.92;25.98;;;;;;;6.30;82.92;95717.28;5005221;28;20450;-47
2021/04/20 05:50:29;;;;;;;36.33;26.42;;;;;;;6.20;83.68;95729.09;5013632;28;20435;-50
2021/04/20 05:52:57;;;;;;;41.10;26.15;;;;;;;6.05;84.88;95727.59;5002281;28;20047;-48
2021/04/20 05:55:25;;;;;;;39.95;27.90;;;;;;;5.97;85.44;95730.25;5011754;28;20053;-44
2021/04/20 05:57:53;;;;;;;38.13;25.83;;;;;;;6.24;84.13;95724.72;5015056;28;20053;-47
2021/04/20 06:00:21;;;;;;;38.83;26.75;;;;;;;6.33;83.64;95728.19;5012607;28;20050;-45
2021/04/20 06:02:50;;;;;;;34.78;25.70;;;;;;;6.28;83.85;95728.34;5013073;28;20519;-47
2021/04/20 06:05:21;;;;;;;38.70;26.27;;;;;;;6.01;85.35;95739.25;5018197;28;20738;-45
2021/04/20 06:07:57;;;;;;;36.80;25.05;;;;;;;6.22;83.39;95732.28;5023381;28;20116;-49
2021/04/20 06:10:24;;;;;;;37.60;26.00;;;;;;;6.46;82.53;95739.16;5023428;28;20565;-49
2021/04/20 06:12:51;;;;;;;37.13;25.25;;;;;;;6.36;84.14;95739.44;5023204;28;20058;-49
2021/04/20 06:15:20;;;;;;;35.30;25.23;;;;;;;5.97;84.30;95747.13;5018094;28;20056;-48
2021/04/20 06:17:47;;;;;;;34.92;25.17;;;;;;;6.40;82.66;95753.84;5032993;28;20052;-49
2021/04/20 06:20:16;;;;;;;34.55;24.70;;;;;;;6.35;83.80;95757.47;5019969;28;20045;-46
2021/04/20 06:22:46;;;;;;;37.00;24.90;;;;;;;6.26;83.35;95762.00;5009305;28;20049;-46
2021/04/20 06:25:14;;;;;;;37.35;25.15;;;;;;;6.50;82.00;95754.38;5009708;28;20116;-48
2021/04/20 06:27:46;;;;;;;34.05;23.85;;;;;;;6.41;82.94;95755.44;5014691;28;20073;-51
2021/04/20 06:30:14;;;;;;;37.08;25.33;;;;;;;6.29;83.61;95748.72;5015064;28;20046;-45
2021/04/20 06:32:43;;;;;;;36.80;24.42;;;;;;;6.53;82.23;95764.50;5012448;28;20144;-47
2021/04/20 06:35:15;;;;;;;34.42;24.20;;;;;;;6.71;80.93;95765.34;5009909;28;20048;-49
2021/04/20 06:37:43;;;;;;;32.38;22.42;;;;;;;6.17;81.64;95764.63;5007515;28;20069;-45
2021/04/20 06:40:37;;;;;;;35.05;22.50;;;;;;;6.05;83.38;95770.59;5005105;28;20050;-47
2021/04/20 06:43:06;;;;;;;35.03;24.23;;;;;;;6.06;84.18;95768.69;5005422;28;20049;-45
2021/04/20 06:45:38;;;;;;;35.08;23.88;;;;;;;6.15;83.47;95772.22;5012506;28;20048;-49
2021/04/20 06:48:24;;;;;;;34.47;23.83;;;;;;;6.35;83.78;95773.59;5009886;28;20124;-45
2021/04/20 06:50:57;;;;;;;32.90;22.23;;;;;;;6.30;82.01;95774.53;5010965;28;20972;-50
2021/04/20 06:53:33;;;;;;;34.72;24.35;;;;;;;6.28;83.10;95776.72;5012955;28;20048;-48
2021/04/20 06:56:06;;;;;;;34.47;23.23;;;;;;;6.30;83.44;95766.47;5023585;28;20836;-49
2021/04/20 06:59:22;;;;;;;33.53;23.55;;;;;;;6.62;82.09;95780.66;5012587;28;20652;-46
2021/04/20 07:01:52;;;;;;;35.78;24.05;;;;;;;6.70;81.87;95774.53;4969716;28;20155;-48
2021/04/20 07:04:27;;;;;;;33.58;23.45;;;;;;;6.90;79.86;95773.16;4972121;28;20046;-47
2021/04/20 07:07:24;;;;;;;34.00;24.05;;;;;;;6.99;79.35;95774.00;4995239;28;20743;-48
2021/04/20 07:09:58;;;;;;;32.30;23.45;;;;;;;7.11;78.85;95772.56;5007384;28;20045;-48
2021/04/20 07:12:25;;;;;;;35.30;23.85;;;;;;;6.92;80.24;95780.91;5008334;28;20041;-45
2021/04/20 07:14:55;;;;;;;33.58;23.40;;;;;;;6.91;80.44;95785.50;5007224;28;20046;-49
2021/04/20 07:17:33;;;;;;;36.13;23.60;;;;;;;6.60;81.31;95776.69;5010224;28;20053;-46
2021/04/20 07:20:13;;;;;;;32.55;23.05;;;;;;;6.75;81.10;95774.38;5009658;28;20586;-50
2021/04/20 07:23:14;;;;;;;31.65;21.80;;;;;;;6.95;79.24;95770.31;5006791;28;20073;-49
2021/04/20 07:25:49;;;;;;;30.83;22.50;;;;;;;7.14;79.76;95770.06;5009023;28;20133;-51
2021/04/20 07:28:42;;;;;;;34.25;22.88;;;;;;;7.50;78.22;95769.00;5009893;28;20066;-49
2021/04/20 07:31:27;;;;;;;32.53;22.80;;;;;;;7.41;78.69;95776.25;5005943;28;20777;-51
2021/04/20 07:34:25;;;;;;;35.80;23.98;;;;;;;7.80;78.14;95771.84;5008985;28;20048;-46
2021/04/20 07:37:03;;;;;;;33.88;22.75;;;;;;;7.81;77.02;95781.50;5004030;28;20068;-44
2021/04/20 07:39:47;;;;;;;32.20;22.73;;;;;;;7.87;76.59;95777.56;5006384;28;20054;-44
2021/04/20 07:42:56;;;;;;;33.25;21.95;;;;;;;7.77;77.10;95780.53;5007580;28;20053;-52
2021/04/20 07:45:29;;;;;;;31.52;21.48;;;;;;;7.57;77.24;95780.09;5005762;28;20069;-46
2021/04/20 07:48:22;;;;;;;;;;;;;;;7.84;76.96;95778.19;5009676;28;20073;-50
2021/04/20 07:50:55;;;;;;;30.48;21.08;;;;;;;7.99;74.70;95779.59;5011460;28;19948;-51
2021/04/20 07:53:46;;;;;;;29.85;21.30;;;;;;;7.96;74.80;95775.63;5010478;28;20416;-49
2021/04/20 07:56:24;;;;;;;28.77;21.42;;;;;;;8.00;74.78;95773.91;5017028;28;20054;-45
2021/04/20 07:58:54;;;;;;;30.77;21.85;;;;;;;7.99;75.73;95777.69;5003075;28;20466;-47
2021/04/20 08:01:44;;;;;;;30.20;21.75;;;;;;;8.03;74.74;95775.16;5009594;28;20046;-48
2021/04/20 08:04:46;;;;;;;30.83;21.58;;;;;;;8.06;75.31;95775.31;5006483;28;20058;-50
2021/04/20 08:07:26;;;;;;;31.88;21.58;;;;;;;7.97;75.64;95777.22;5021807;28;20065;-46
2021/04/20 08:09:56;;;;;;;28.98;20.85;;;;;;;8.17;75.32;95773.84;4991794;28;20046;-46
2021/04/20 08:12:28;;;;;;;27.73;20.63;;;;;;;8.29;75.40;95777.81;5005004;28;20506;-49
2021/04/20 08:15:03;;;;;;;28.77;21.05;;;;;;;8.35;75.26;95777.31;5008007;28;20065;-52
2021/04/20 08:17:40;;;;;;;29.38;20.90;;;;;;;8.37;73.15;95783.16;5009328;28;20046;-46
2021/04/20 08:20:26;;;;;;;29.95;21.92;;;;;;;8.36;74.38;95778.88;5007363;28;20042;-50
2021/04/20 08:22:56;;;;;;;25.70;20.23;;;;;;;8.18;73.43;95778.13;5007155;28;20054;-47
2021/04/20 08:25:37;;;;;;;27.50;20.17;;;;;;;7.48;75.34;95777.41;5016848;28;20057;-45
2021/04/20 08:28:23;;;;;;;29.05;19.83;;;;;;;7.66;76.25;95772.78;5015853;28;20100;-44
2021/04/20 08:31:11;;;;;;;28.20;20.58;;;;;;;7.76;75.80;95776.28;5012133;28;20058;-47
2021/04/20 08:33:42;;;;;;;28.17;20.40;;;;;;;7.90;76.26;95776.91;5009306;28;20041;-46
2021/04/20 08:36:32;;;;;;;30.40;20.07;;;;;;;7.94;75.83;95772.47;5012486;28;20050;-46
2021/04/20 08:39:19;;;;;;;27.90;20.67;;;;;;;8.29;74.31;95775.91;5005935;28;20322;-47
2021/04/20 08:42:16;;;;;;;26.45;19.90;;;;;;;8.28;73.93;95768.91;5005987;28;20127;-48
2021/04/20 08:44:54;;;;;;;27.58;20.90;;;;;;;8.51;73.67;95768.72;5004130;28;20426;-47
2021/04/20 08:47:48;;;;;;;25.85;18.98;;;;;;;8.27;74.12;95777.31;5010168;28;20049;-50
2021/04/20 08:50:20;;;;;;;25.25;18.30;;;;;;;8.55;72.08;95775.84;5010352;28;20065;-51
2021/04/20 08:53:01;;;;;;;26.23;19.17;;;;;;;8.57;72.01;95772.81;4996341;28;20058;-46
2021/04/20 08:55:36;;;;;;;26.50;19.80;;;;;;;8.42;74.37;95771.47;5004364;28;20061;-47
2021/04/20 08:58:09;;;;;;;26.60;19.85;;;;;;;8.89;72.19;95779.50;5010410;28;20053;-46
2021/04/20 09:00:56;;;;;;;24.15;18.35;;;;;;;8.87;70.83;95781.72;5007523;28;20393;-47
2021/04/20 09:03:46;;;;;;;26.83;18.88;;;;;;;9.00;70.10;95780.75;5007854;28;20065;-49
2021/04/20 09:06:38;;;;;;;25.23;18.77;;;;;;;8.83;71.23;95780.81;5008348;28;20053;-46
2021/04/20 09:09:07;;;;;;;25.67;18.58;;;;;;;9.15;71.31;95773.19;5013598;28;20068;-48
2021/04/20 09:11:45;;;;;;;25.13;19.13;;;;;;;9.13;70.90;95774.31;5002559;28;20606;-48
2021/04/20 09:14:28;;;;;;;25.17;18.63;;;;;;;8.62;71.78;95776.13;4997077;28;20460;-49
2021/04/20 09:17:10;;;;;;;29.30;19.42;;;;;;;9.23;70.41;95775.03;5010669;28;20532;-49
2021/04/20 09:19:56;;;;;;;25.35;19.17;;;;;;;9.49;69.70;95775.69;5012215;28;20053;-50
2021/04/20 09:22:43;;;;;;;25.27;19.35;;;;;;;9.74;69.92;95775.78;5007544;28;20720;-49
2021/04/20 09:25:22;;;;;;;28.65;20.13;;;;;;;9.82;69.60;95774.94;5013696;28;20054;-52
2021/04/20 09:28:02;;;;;;;28.80;19.65;;;;;;;9.84;69.25;95775.38;5002911;28;20054;-47
2021/04/20 09:30:37;;;;;;;27.27;19.17;;;;;;;9.78;68.88;95772.13;5003915;28;20133;-48
2021/04/20 09:33:19;;;;;;;26.58;19.88;;;;;;;9.98;67.00;95770.50;5012683;28;20084;-52
2021/04/20 09:35:47;;;;;;;28.55;20.13;;;;;;;10.14;67.36;95777.97;5013692;28;20078;-50
2021/04/20 09:38:16;;;;;;;24.15;18.90;;;;;;;10.14;66.26;95772.56;5007753;28;20504;-50
2021/04/20 09:40:46;;;;;;;24.70;17.73;;;;;;;10.18;66.41;95773.50;5008863;28;20128;-46
2021/04/20 09:43:22;;;;;;;24.77;19.42;;;;;;;10.29;66.93;95780.09;4993726;28;20054;-47
2021/04/20 09:46:16;;;;;;;24.88;18.40;;;;;;;10.40;65.84;95772.34;5013870;28;20129;-48
2021/04/20 09:49:08;;;;;;;24.02;18.02;;;;;;;10.34;65.95;95768.28;5013749;28;20500;-50
2021/04/20 09:51:46;;;;;;;26.77;19.40;;;;;;;10.13;66.24;95776.41;5007982;28;20395;-51
2021/04/20 09:54:31;;;;;;;24.90;18.17;;;;;;;10.52;63.47;95766.97;5010033;28;20041;-49
2021/04/20 09:57:01;;;;;;;27.10;19.35;;;;;;;9.86;65.90;95767.75;5012443;28;20092;-47
2021/04/20 09:59:34;;;;;;;25.67;18.98;;;;;;;10.31;64.92;95769.75;5011832;28;20053;-49
2021/04/20 10:02:03;;;;;;;24.40;18.50;;;;;;;10.50;63.42;95771.94;5011971;28;20053;-50
2021/04/20 10:04:43;;;;;;;22.58;18.02;;;;;;;10.16;64.75;95775.75;5009607;28;20060;-47
2021/04/20 10:07:42;;;;;;;22.98;17.48;;;;;;;10.35;63.74;95769.88;5012708;28;20050;-48
2021/04/20 10:10:46;;;;;;;23.10;17.15;;;;;;;9.39;67.01;95778.75;5009924;28;20056;-52
2021/04/20 10:13:19;;;;;;;25.02;17.77;;;;;;;9.22;68.36;95771.56;5008371;28;20101;-48
2021/04/20 10:16:09;;;;;;;26.40;18.77;;;;;;;9.77;67.48;95769.72;5013047;28;20141;-47
2021/04/20 10:18:49;;;;;;;24.08;18.23;;;;;;;10.18;64.69;95766.19;5004247;28;20056;-50
2021/04/20 10:21:42;;;;;;;24.83;18.50;;;;;;;10.55;65.01;95769.00;5024621;28;20061;-46
2021/04/20 10:24:23;;;;;;;27.98;20.67;;;;;;;10.71;65.54;95761.81;5011710;28;20057;-46
2021/04/20 10:26:55;;;;;;;24.17;18.88;;;;;;;10.86;64.10;95765.00;5021003;23;20046;-46
2021/04/20 10:29:40;;;;;;;23.85;19.20;;;;;;;10.98;64.95;95757.66;4988940;28;20046;-49
2021/04/20 10:32:14;;;;;;;25.02;19.08;;;;;;;11.08;63.50;95752.91;4990993;28;20419;-47
2021/04/20 10:34:53;;;;;;;23.65;17.83;;;;;;;11.34;61.51;95749.81;4990705;28;20549;-46
2021/04/20 10:37:42;;;;;;;24.02;16.92;;;;;;;11.51;60.54;95746.88;4987888;28;20416;-45
2021/04/20 10:40:13;;;;;;;21.05;17.25;;;;;;;11.43;59.70;95745.84;4974994;28;20050;-50
2021/04/20 10:42:40;;;;;;;23.55;17.60;;;;;;;11.42;58.61;95747.00;4985834;28;20046;-50
2021/04/20 10:45:08;;;;;;;19.92;16.08;;;;;;;11.44;58.91;95746.66;4984362;28;20050;-46
2021/04/20 10:47:37;;;;;;;23.83;17.25;;;;;;;11.21;60.35;95743.63;4991958;28;20078;-50
2021/04/20 10:50:06;;;;;;;20.33;16.15;;;;;;;11.56;57.31;95743.13;4993487;28;20058;-47
2021/04/20 10:52:37;;;;;;;23.02;15.85;;;;;;;10.52;59.24;95740.69;4986765;28;20412;-45
2021/04/20 10:55:09;;;;;;;20.50;15.15;;;;;;;10.12;59.97;95740.47;4973788;28;20073;-50
2021/04/20 10:57:40;;;;;;;19.38;14.85;;;;;;;10.72;62.21;95746.34;4973642;28;20058;-47
2021/04/20 11:00:07;;;;;;;18.75;14.68;;;;;;;11.09;57.99;95735.53;4972218;28;20062;-48
2021/04/20 11:02:41;;;;;;;19.92;15.18;;;;;;;11.22;59.28;95740.59;4956260;28;20057;-48
2021/04/20 11:05:09;;;;;;;25.60;17.70;;;;;;;11.22;60.41;95740.59;4974002;28;20054;-47
2021/04/20 11:07:40;;;;;;;20.35;15.20;;;;;;;11.15;57.08;95736.91;4972264;28;20134;-49
2021/04/20 11:10:09;;;;;;;17.95;14.55;;;;;;;10.99;57.54;95731.38;4972209;28;20062;-47
2021/04/20 11:12:48;;;;;;;18.30;14.80;;;;;;;11.34;57.90;95731.69;4974824;28;20062;-46
2021/04/20 11:15:26;;;;;;;21.67;15.13;;;;;;;11.26;60.26;95729.09;4992971;28;20062;-48
2021/04/20 11:17:55;;;;;;;20.17;15.38;;;;;;;11.21;59.81;95727.38;4993019;28;20451;-48
2021/04/20 11:20:38;;;;;;;19.25;14.77;;;;;;;11.59;58.13;95728.91;4990745;28;20046;-50
2021/04/20 11:23:08;;;;;;;;;;;;;;;11.40;58.23;95740.34;4973659;28;20484;-48
2021/04/20 11:25:55;;;;;;;20.83;15.43;;;;;;;11.60;58.53;95730.47;4973586;28;20347;-47
2021/04/20 11:28:44;;;;;;;21.20;15.65;;;;;;;11.61;57.45;95729.34;4972980;28;20078;-50
2021/04/20 11:31:32;;;;;;;19.73;14.98;;;;;;;11.43;57.17;95723.41;4988775;28;20502;-45
2021/04/20 11:34:09;;;;;;;19.90;15.65;;;;;;;11.13;59.46;95723.69;4992019;28;20050;-47
2021/04/20 11:36:44;;;;;;;20.27;15.77;;;;;;;11.26;60.26;95731.78;4992009;28;20132;-48
2021/04/20 11:39:21;;;;;;;19.88;15.73;;;;;;;11.30;58.80;95725.34;4987033;28;20050;-49
2021/04/20 11:41:59;;;;;;;19.30;15.50;;;;;;;11.18;59.12;95728.09;4972654;28;20062;-45
2021/04/20 11:44:35;;;;;;;21.70;16.20;;;;;;;11.30;60.00;95724.56;4988120;28;20606;-47
2021/04/20 11:47:05;;;;;;;20.67;15.27;;;;;;;11.11;59.12;95717.03;4990578;28;20365;-48
2021/04/20 11:49:33;;;;;;;20.08;15.07;;;;;;;10.91;59.83;95727.63;4994015;28;20449;-49
2021/04/20 11:52:00;;;;;;;23.52;15.15;;;;;;;10.46;60.37;95720.44;4990079;28;20093;-46
2021/04/20 11:54:34;;;;;;;23.25;15.10;;;;;;;10.35;61.45;95716.56;4991987;28;20105;-48